sensor_id;sensor_type;location;lat;lon;timestamp;P1;durP1;ratioP1;P2;durP2;ratioP2
52848;SDS011;38714;53.180;5.812;2023-04-24T00:02:13;1.42;;;1.33;;
52848;SDS011;38714;53.180;5.812;2023-04-24T00:04:39;2.40;;;1.63;;
52848;SDS011;38714;53.180;5.812;2023-04-24T00:07:06;3.60;;;1.63;;
52848;SDS011;38714;53.180;5.812;2023-04-24T00:09:35;4.22;;;2.00;;
52848;SDS011;38714;53.180;5.812;2023-04-24T00:12:01;1.90;;;1.60;;
52848;SDS011;38714;53.180;5.812;2023-04-24T00:14:29;4.55;;;1.73;;
52848;SDS011;38714;53.180;5.812;2023-04-24T00:16:55;3.22;;;2.40;;
52848;SDS011;38714;53.180;5.812;2023-04-24T00:19:21;3.85;;;2.28;;
52848;SDS011;38714;53.180;5.812;2023-04-24T00:21:47;2.67;;;1.90;;
52848;SDS011;38714;53.180;5.812;2023-04-24T00:24:15;3.70;;;2.22;;
52848;SDS011;38714;53.180;5.812;2023-04-24T00:26:41;2.85;;;1.48;;
52848;SDS011;38714;53.180;5.812;2023-04-24T00:29:07;3.05;;;2.10;;
52848;SDS011;38714;53.180;5.812;2023-04-24T00:31:32;2.90;;;1.60;;
52848;SDS011;38714;53.180;5.812;2023-04-24T00:34:00;3.67;;;2.65;;
52848;SDS011;38714;53.180;5.812;2023-04-24T00:36:26;3.85;;;1.88;;
52848;SDS011;38714;53.180;5.812;2023-04-24T00:38:52;4.40;;;2.15;;
52848;SDS011;38714;53.180;5.812;2023-04-24T00:41:18;2.45;;;1.50;;
52848;SDS011;38714;53.180;5.812;2023-04-24T00:43:44;3.13;;;2.17;;
52848;SDS011;38714;53.180;5.812;2023-04-24T00:46:10;4.05;;;2.60;;
52848;SDS011;38714;53.180;5.812;2023-04-24T00:48:38;3.25;;;2.47;;
52848;SDS011;38714;53.180;5.812;2023-04-24T00:51:04;3.17;;;1.92;;
52848;SDS011;38714;53.180;5.812;2023-04-24T00:53:30;7.70;;;2.88;;
52848;SDS011;38714;53.180;5.812;2023-04-24T00:55:56;3.25;;;2.20;;
52848;SDS011;38714;53.180;5.812;2023-04-24T00:58:22;2.83;;;2.00;;
52848;SDS011;38714;53.180;5.812;2023-04-24T01:00:49;4.55;;;2.35;;
52848;SDS011;38714;53.180;5.812;2023-04-24T01:03:18;5.07;;;2.88;;
52848;SDS011;38714;53.180;5.812;2023-04-24T01:05:46;4.40;;;2.35;;
52848;SDS011;38714;53.180;5.812;2023-04-24T01:08:12;4.30;;;2.50;;
52848;SDS011;38714;53.180;5.812;2023-04-24T01:10:39;4.40;;;2.67;;
52848;SDS011;38714;53.180;5.812;2023-04-24T01:13:07;3.35;;;2.58;;
52848;SDS011;38714;53.180;5.812;2023-04-24T01:15:33;4.78;;;2.25;;
52848;SDS011;38714;53.180;5.812;2023-04-24T01:17:59;3.85;;;2.50;;
52848;SDS011;38714;53.180;5.812;2023-04-24T01:20:25;3.30;;;2.85;;
52848;SDS011;38714;53.180;5.812;2023-04-24T01:22:51;5.13;;;2.72;;
52848;SDS011;38714;53.180;5.812;2023-04-24T01:25:17;4.75;;;1.98;;
52848;SDS011;38714;53.180;5.812;2023-04-24T01:27:43;4.13;;;2.47;;
52848;SDS011;38714;53.180;5.812;2023-04-24T01:30:09;5.15;;;2.72;;
52848;SDS011;38714;53.180;5.812;2023-04-24T01:32:36;3.65;;;2.38;;
52848;SDS011;38714;53.180;5.812;2023-04-24T01:35:02;4.28;;;2.70;;
52848;SDS011;38714;53.180;5.812;2023-04-24T01:37:28;2.72;;;2.25;;
52848;SDS011;38714;53.180;5.812;2023-04-24T01:39:54;4.97;;;2.70;;
52848;SDS011;38714;53.180;5.812;2023-04-24T01:42:20;4.28;;;2.60;;
52848;SDS011;38714;53.180;5.812;2023-04-24T01:44:46;4.20;;;2.90;;
52848;SDS011;38714;53.180;5.812;2023-04-24T01:47:12;6.97;;;3.60;;
52848;SDS011;38714;53.180;5.812;2023-04-24T01:49:38;4.45;;;3.80;;
52848;SDS011;38714;53.180;5.812;2023-04-24T01:52:04;3.00;;;2.30;;
52848;SDS011;38714;53.180;5.812;2023-04-24T01:54:30;6.75;;;2.53;;
52848;SDS011;38714;53.180;5.812;2023-04-24T01:56:55;5.13;;;2.90;;
52848;SDS011;38714;53.180;5.812;2023-04-24T01:59:21;5.30;;;2.30;;
52848;SDS011;38714;53.180;5.812;2023-04-24T02:01:48;3.63;;;2.10;;
52848;SDS011;38714;53.180;5.812;2023-04-24T02:04:13;4.10;;;2.60;;
52848;SDS011;38714;53.180;5.812;2023-04-24T02:06:40;3.15;;;1.92;;
52848;SDS011;38714;53.180;5.812;2023-04-24T02:09:05;6.30;;;3.28;;
52848;SDS011;38714;53.180;5.812;2023-04-24T02:11:31;2.92;;;2.05;;
52848;SDS011;38714;53.180;5.812;2023-04-24T02:13:57;3.15;;;2.00;;
52848;SDS011;38714;53.180;5.812;2023-04-24T02:16:23;3.88;;;2.10;;
52848;SDS011;38714;53.180;5.812;2023-04-24T02:18:48;5.68;;;2.25;;
52848;SDS011;38714;53.180;5.812;2023-04-24T02:21:14;5.72;;;2.60;;
52848;SDS011;38714;53.180;5.812;2023-04-24T02:23:40;5.22;;;2.88;;
52848;SDS011;38714;53.180;5.812;2023-04-24T02:26:05;3.95;;;2.45;;
52848;SDS011;38714;53.180;5.812;2023-04-24T02:28:31;3.00;;;2.45;;
52848;SDS011;38714;53.180;5.812;2023-04-24T02:30:57;6.15;;;3.03;;
52848;SDS011;38714;53.180;5.812;2023-04-24T02:33:23;3.25;;;2.13;;
52848;SDS011;38714;53.180;5.812;2023-04-24T02:35:49;4.45;;;2.30;;
52848;SDS011;38714;53.180;5.812;2023-04-24T02:38:14;1.75;;;1.00;;
52848;SDS011;38714;53.180;5.812;2023-04-24T02:40:40;3.13;;;1.20;;
52848;SDS011;38714;53.180;5.812;2023-04-24T02:43:05;1.50;;;1.40;;
52848;SDS011;38714;53.180;5.812;2023-04-24T02:45:31;2.38;;;1.52;;
52848;SDS011;38714;53.180;5.812;2023-04-24T02:47:59;1.52;;;1.23;;
52848;SDS011;38714;53.180;5.812;2023-04-24T02:50:25;1.10;;;1.05;;
52848;SDS011;38714;53.180;5.812;2023-04-24T02:52:50;2.05;;;0.98;;
52848;SDS011;38714;53.180;5.812;2023-04-24T02:55:16;1.48;;;0.80;;
52848;SDS011;38714;53.180;5.812;2023-04-24T02:57:41;1.10;;;0.55;;
52848;SDS011;38714;53.180;5.812;2023-04-24T03:00:07;1.13;;;0.98;;
52848;SDS011;38714;53.180;5.812;2023-04-24T03:02:34;1.20;;;0.80;;
52848;SDS011;38714;53.180;5.812;2023-04-24T03:04:59;1.30;;;1.05;;
52848;SDS011;38714;53.180;5.812;2023-04-24T03:07:25;1.70;;;1.23;;
52848;SDS011;38714;53.180;5.812;2023-04-24T03:09:50;2.00;;;1.00;;
52848;SDS011;38714;53.180;5.812;2023-04-24T03:12:16;1.48;;;1.13;;
52848;SDS011;38714;53.180;5.812;2023-04-24T03:14:43;0.82;;;0.70;;
52848;SDS011;38714;53.180;5.812;2023-04-24T03:17:08;0.65;;;0.65;;
52848;SDS011;38714;53.180;5.812;2023-04-24T03:19:34;1.92;;;0.65;;
52848;SDS011;38714;53.180;5.812;2023-04-24T03:22:01;0.63;;;0.35;;
52848;SDS011;38714;53.180;5.812;2023-04-24T03:24:27;0.75;;;0.50;;
52848;SDS011;38714;53.180;5.812;2023-04-24T03:26:53;0.60;;;0.60;;
52848;SDS011;38714;53.180;5.812;2023-04-24T03:29:19;0.70;;;0.70;;
52848;SDS011;38714;53.180;5.812;2023-04-24T03:31:44;1.67;;;0.85;;
52848;SDS011;38714;53.180;5.812;2023-04-24T03:34:10;3.58;;;1.02;;
52848;SDS011;38714;53.180;5.812;2023-04-24T03:36:36;4.03;;;1.38;;
52848;SDS011;38714;53.180;5.812;2023-04-24T03:39:01;1.38;;;1.00;;
52848;SDS011;38714;53.180;5.812;2023-04-24T03:41:27;2.22;;;1.40;;
52848;SDS011;38714;53.180;5.812;2023-04-24T03:43:52;5.75;;;1.48;;
52848;SDS011;38714;53.180;5.812;2023-04-24T03:46:18;3.17;;;1.30;;
52848;SDS011;38714;53.180;5.812;2023-04-24T03:48:43;1.10;;;0.90;;
52848;SDS011;38714;53.180;5.812;2023-04-24T03:51:09;3.60;;;1.08;;
52848;SDS011;38714;53.180;5.812;2023-04-24T03:53:35;3.42;;;1.52;;
52848;SDS011;38714;53.180;5.812;2023-04-24T03:56:00;1.92;;;1.08;;
52848;SDS011;38714;53.180;5.812;2023-04-24T03:58:26;1.50;;;1.33;;
52848;SDS011;38714;53.180;5.812;2023-04-24T04:00:51;2.83;;;1.08;;
52848;SDS011;38714;53.180;5.812;2023-04-24T04:03:17;3.47;;;1.40;;
52848;SDS011;38714;53.180;5.812;2023-04-24T04:05:42;1.52;;;1.40;;
52848;SDS011;38714;53.180;5.812;2023-04-24T04:08:08;3.92;;;1.23;;
52848;SDS011;38714;53.180;5.812;2023-04-24T04:10:34;1.05;;;0.88;;
52848;SDS011;38714;53.180;5.812;2023-04-24T04:12:59;3.30;;;0.98;;
52848;SDS011;38714;53.180;5.812;2023-04-24T04:15:25;1.70;;;1.52;;
52848;SDS011;38714;53.180;5.812;2023-04-24T04:17:51;3.78;;;2.13;;
52848;SDS011;38714;53.180;5.812;2023-04-24T04:20:16;3.60;;;1.25;;
52848;SDS011;38714;53.180;5.812;2023-04-24T04:22:42;3.95;;;1.98;;
52848;SDS011;38714;53.180;5.812;2023-04-24T04:25:07;1.80;;;1.27;;
52848;SDS011;38714;53.180;5.812;2023-04-24T04:27:33;3.35;;;1.52;;
52848;SDS011;38714;53.180;5.812;2023-04-24T04:30:00;6.40;;;2.10;;
52848;SDS011;38714;53.180;5.812;2023-04-24T04:32:32;1.13;;;1.00;;
52848;SDS011;38714;53.180;5.812;2023-04-24T04:34:59;4.28;;;1.52;;
52848;SDS011;38714;53.180;5.812;2023-04-24T04:37:34;1.63;;;1.23;;
52848;SDS011;38714;53.180;5.812;2023-04-24T04:40:00;1.27;;;0.95;;
52848;SDS011;38714;53.180;5.812;2023-04-24T04:42:26;0.85;;;0.85;;
52848;SDS011;38714;53.180;5.812;2023-04-24T04:44:53;0.52;;;0.50;;
52848;SDS011;38714;53.180;5.812;2023-04-24T04:47:19;1.38;;;1.23;;
52848;SDS011;38714;53.180;5.812;2023-04-24T04:49:48;1.10;;;0.63;;
52848;SDS011;38714;53.180;5.812;2023-04-24T04:52:13;1.20;;;1.15;;
52848;SDS011;38714;53.180;5.812;2023-04-24T04:54:39;2.35;;;1.85;;
52848;SDS011;38714;53.180;5.812;2023-04-24T04:57:05;3.22;;;1.63;;
52848;SDS011;38714;53.180;5.812;2023-04-24T04:59:31;2.55;;;1.45;;
52848;SDS011;38714;53.180;5.812;2023-04-24T05:01:56;3.42;;;2.10;;
52848;SDS011;38714;53.180;5.812;2023-04-24T05:04:22;2.95;;;2.20;;
52848;SDS011;38714;53.180;5.812;2023-04-24T05:06:48;3.45;;;2.05;;
52848;SDS011;38714;53.180;5.812;2023-04-24T05:09:18;3.13;;;1.85;;
52848;SDS011;38714;53.180;5.812;2023-04-24T05:11:44;2.35;;;1.70;;
52848;SDS011;38714;53.180;5.812;2023-04-24T05:14:10;2.40;;;1.85;;
52848;SDS011;38714;53.180;5.812;2023-04-24T05:16:37;1.85;;;1.48;;
52848;SDS011;38714;53.180;5.812;2023-04-24T05:19:03;2.67;;;1.27;;
52848;SDS011;38714;53.180;5.812;2023-04-24T05:21:29;2.67;;;1.67;;
52848;SDS011;38714;53.180;5.812;2023-04-24T05:23:54;3.00;;;1.77;;
52848;SDS011;38714;53.180;5.812;2023-04-24T05:26:20;1.92;;;1.52;;
52848;SDS011;38714;53.180;5.812;2023-04-24T05:28:45;1.35;;;1.00;;
52848;SDS011;38714;53.180;5.812;2023-04-24T05:31:11;1.80;;;1.10;;
52848;SDS011;38714;53.180;5.812;2023-04-24T05:33:37;1.35;;;0.80;;
52848;SDS011;38714;53.180;5.812;2023-04-24T05:36:03;1.10;;;0.88;;
52848;SDS011;38714;53.180;5.812;2023-04-24T05:38:30;1.42;;;0.93;;
52848;SDS011;38714;53.180;5.812;2023-04-24T05:40:56;2.95;;;1.45;;
52848;SDS011;38714;53.180;5.812;2023-04-24T05:43:21;1.52;;;0.98;;
52848;SDS011;38714;53.180;5.812;2023-04-24T05:45:47;2.58;;;1.25;;
52848;SDS011;38714;53.180;5.812;2023-04-24T05:48:12;1.25;;;1.20;;
52848;SDS011;38714;53.180;5.812;2023-04-24T05:50:38;4.88;;;1.00;;
52848;SDS011;38714;53.180;5.812;2023-04-24T05:53:03;2.13;;;1.13;;
52848;SDS011;38714;53.180;5.812;2023-04-24T05:55:30;1.70;;;0.80;;
52848;SDS011;38714;53.180;5.812;2023-04-24T05:57:56;3.65;;;0.68;;
52848;SDS011;38714;53.180;5.812;2023-04-24T06:00:21;2.92;;;0.60;;
52848;SDS011;38714;53.180;5.812;2023-04-24T06:02:47;1.35;;;0.82;;
52848;SDS011;38714;53.180;5.812;2023-04-24T06:05:13;0.95;;;0.80;;
52848;SDS011;38714;53.180;5.812;2023-04-24T06:07:38;2.53;;;0.95;;
52848;SDS011;38714;53.180;5.812;2023-04-24T06:10:04;1.92;;;1.48;;
52848;SDS011;38714;53.180;5.812;2023-04-24T06:12:30;0.52;;;0.40;;
52848;SDS011;38714;53.180;5.812;2023-04-24T06:14:56;0.50;;;0.50;;
52848;SDS011;38714;53.180;5.812;2023-04-24T06:17:21;1.27;;;0.30;;
52848;SDS011;38714;53.180;5.812;2023-04-24T06:19:47;0.43;;;0.40;;
52848;SDS011;38714;53.180;5.812;2023-04-24T06:22:12;1.55;;;1.33;;
52848;SDS011;38714;53.180;5.812;2023-04-24T06:24:41;0.85;;;0.50;;
52848;SDS011;38714;53.180;5.812;2023-04-24T06:27:07;0.93;;;0.55;;
52848;SDS011;38714;53.180;5.812;2023-04-24T06:29:33;0.68;;;0.63;;
52848;SDS011;38714;53.180;5.812;2023-04-24T06:31:59;2.78;;;1.23;;
52848;SDS011;38714;53.180;5.812;2023-04-24T06:34:24;1.40;;;1.27;;
52848;SDS011;38714;53.180;5.812;2023-04-24T06:36:50;3.70;;;1.77;;
52848;SDS011;38714;53.180;5.812;2023-04-24T06:39:16;3.25;;;2.20;;
52848;SDS011;38714;53.180;5.812;2023-04-24T06:41:42;5.85;;;3.05;;
52848;SDS011;38714;53.180;5.812;2023-04-24T06:44:07;5.57;;;2.75;;
52848;SDS011;38714;53.180;5.812;2023-04-24T06:46:33;5.93;;;3.13;;
52848;SDS011;38714;53.180;5.812;2023-04-24T06:48:59;7.50;;;2.88;;
52848;SDS011;38714;53.180;5.812;2023-04-24T06:51:25;5.15;;;4.05;;
52848;SDS011;38714;53.180;5.812;2023-04-24T06:53:55;9.05;;;3.38;;
52848;SDS011;38714;53.180;5.812;2023-04-24T06:56:23;6.75;;;3.95;;
52848;SDS011;38714;53.180;5.812;2023-04-24T06:58:50;7.55;;;2.83;;
52848;SDS011;38714;53.180;5.812;2023-04-24T07:01:16;5.65;;;2.92;;
52848;SDS011;38714;53.180;5.812;2023-04-24T07:03:41;8.90;;;4.15;;
52848;SDS011;38714;53.180;5.812;2023-04-24T07:06:07;4.80;;;2.67;;
52848;SDS011;38714;53.180;5.812;2023-04-24T07:08:34;6.82;;;3.00;;
52848;SDS011;38714;53.180;5.812;2023-04-24T07:11:00;5.78;;;4.00;;
52848;SDS011;38714;53.180;5.812;2023-04-24T07:13:26;5.15;;;3.30;;
52848;SDS011;38714;53.180;5.812;2023-04-24T07:15:53;7.50;;;3.42;;
52848;SDS011;38714;53.180;5.812;2023-04-24T07:18:20;12.80;;;4.22;;
52848;SDS011;38714;53.180;5.812;2023-04-24T07:20:46;9.85;;;3.22;;
52848;SDS011;38714;53.180;5.812;2023-04-24T07:23:11;5.68;;;3.45;;
52848;SDS011;38714;53.180;5.812;2023-04-24T07:25:37;14.38;;;4.90;;
52848;SDS011;38714;53.180;5.812;2023-04-24T07:28:04;5.32;;;4.68;;
52848;SDS011;38714;53.180;5.812;2023-04-24T07:30:30;5.95;;;4.13;;
52848;SDS011;38714;53.180;5.812;2023-04-24T07:32:58;7.53;;;4.72;;
52848;SDS011;38714;53.180;5.812;2023-04-24T07:35:24;5.72;;;3.83;;
52848;SDS011;38714;53.180;5.812;2023-04-24T07:37:53;10.13;;;4.50;;
52848;SDS011;38714;53.180;5.812;2023-04-24T07:40:19;6.75;;;3.35;;
52848;SDS011;38714;53.180;5.812;2023-04-24T07:42:45;7.63;;;3.10;;
52848;SDS011;38714;53.180;5.812;2023-04-24T07:45:13;3.50;;;2.75;;
52848;SDS011;38714;53.180;5.812;2023-04-24T07:47:39;4.88;;;2.80;;
52848;SDS011;38714;53.180;5.812;2023-04-24T07:50:08;4.03;;;3.22;;
52848;SDS011;38714;53.180;5.812;2023-04-24T07:52:34;2.33;;;2.13;;
52848;SDS011;38714;53.180;5.812;2023-04-24T07:55:00;4.10;;;2.28;;
52848;SDS011;38714;53.180;5.812;2023-04-24T07:57:27;4.45;;;2.28;;
52848;SDS011;38714;53.180;5.812;2023-04-24T07:59:53;5.07;;;2.83;;
52848;SDS011;38714;53.180;5.812;2023-04-24T08:02:19;4.55;;;1.88;;
52848;SDS011;38714;53.180;5.812;2023-04-24T08:04:46;2.97;;;2.05;;
52848;SDS011;38714;53.180;5.812;2023-04-24T08:07:12;3.67;;;2.13;;
52848;SDS011;38714;53.180;5.812;2023-04-24T08:09:38;4.13;;;1.35;;
52848;SDS011;38714;53.180;5.812;2023-04-24T08:12:03;4.20;;;1.85;;
52848;SDS011;38714;53.180;5.812;2023-04-24T08:14:29;3.38;;;2.70;;
52848;SDS011;38714;53.180;5.812;2023-04-24T08:16:55;4.82;;;3.03;;
52848;SDS011;38714;53.180;5.812;2023-04-24T08:19:21;3.63;;;2.17;;
52848;SDS011;38714;53.180;5.812;2023-04-24T08:21:47;3.47;;;2.53;;
52848;SDS011;38714;53.180;5.812;2023-04-24T08:24:12;3.50;;;2.88;;
52848;SDS011;38714;53.180;5.812;2023-04-24T08:26:38;4.00;;;2.58;;
52848;SDS011;38714;53.180;5.812;2023-04-24T08:29:04;4.28;;;2.83;;
52848;SDS011;38714;53.180;5.812;2023-04-24T08:31:31;6.63;;;3.28;;
52848;SDS011;38714;53.180;5.812;2023-04-24T08:33:57;3.97;;;2.70;;
52848;SDS011;38714;53.180;5.812;2023-04-24T08:36:24;2.40;;;1.80;;
52848;SDS011;38714;53.180;5.812;2023-04-24T08:38:51;3.42;;;1.60;;
52848;SDS011;38714;53.180;5.812;2023-04-24T08:41:16;7.68;;;2.65;;
52848;SDS011;38714;53.180;5.812;2023-04-24T08:43:44;4.57;;;2.00;;
52848;SDS011;38714;53.180;5.812;2023-04-24T08:46:11;4.43;;;2.55;;
52848;SDS011;38714;53.180;5.812;2023-04-24T08:48:38;2.30;;;1.85;;
52848;SDS011;38714;53.180;5.812;2023-04-24T08:51:05;3.97;;;1.48;;
52848;SDS011;38714;53.180;5.812;2023-04-24T08:53:32;2.42;;;1.50;;
52848;SDS011;38714;53.180;5.812;2023-04-24T08:55:58;3.03;;;2.08;;
52848;SDS011;38714;53.180;5.812;2023-04-24T08:58:26;2.83;;;1.75;;
52848;SDS011;38714;53.180;5.812;2023-04-24T09:00:55;7.70;;;1.60;;
52848;SDS011;38714;53.180;5.812;2023-04-24T09:03:22;3.25;;;1.63;;
52848;SDS011;38714;53.180;5.812;2023-04-24T09:05:48;3.65;;;1.42;;
52848;SDS011;38714;53.180;5.812;2023-04-24T09:08:16;6.47;;;1.20;;
52848;SDS011;38714;53.180;5.812;2023-04-24T09:10:43;2.50;;;1.40;;
52848;SDS011;38714;53.180;5.812;2023-04-24T09:13:09;3.22;;;1.95;;
52848;SDS011;38714;53.180;5.812;2023-04-24T09:15:36;3.17;;;1.40;;
52848;SDS011;38714;53.180;5.812;2023-04-24T09:18:03;3.58;;;1.95;;
52848;SDS011;38714;53.180;5.812;2023-04-24T09:20:30;3.58;;;1.60;;
52848;SDS011;38714;53.180;5.812;2023-04-24T09:22:56;2.72;;;1.67;;
52848;SDS011;38714;53.180;5.812;2023-04-24T09:25:22;3.72;;;1.92;;
52848;SDS011;38714;53.180;5.812;2023-04-24T09:28:01;1.67;;;1.23;;
52848;SDS011;38714;53.180;5.812;2023-04-24T09:30:28;1.75;;;1.27;;
52848;SDS011;38714;53.180;5.812;2023-04-24T09:33:13;1.77;;;0.82;;
52848;SDS011;38714;53.180;5.812;2023-04-24T09:36:01;0.98;;;0.95;;
52848;SDS011;38714;53.180;5.812;2023-04-24T09:38:34;1.20;;;0.95;;
52848;SDS011;38714;53.180;5.812;2023-04-24T09:41:04;2.72;;;1.98;;
52848;SDS011;38714;53.180;5.812;2023-04-24T09:43:33;2.30;;;1.45;;
52848;SDS011;38714;53.180;5.812;2023-04-24T09:46:03;2.15;;;1.00;;
52848;SDS011;38714;53.180;5.812;2023-04-24T09:48:34;3.22;;;0.70;;
52848;SDS011;38714;53.180;5.812;2023-04-24T09:51:01;4.88;;;1.70;;
52848;SDS011;38714;53.180;5.812;2023-04-24T09:53:29;2.95;;;1.05;;
52848;SDS011;38714;53.180;5.812;2023-04-24T09:55:55;4.20;;;1.45;;
52848;SDS011;38714;53.180;5.812;2023-04-24T09:58:24;1.10;;;0.63;;
52848;SDS011;38714;53.180;5.812;2023-04-24T10:00:53;7.35;;;0.90;;
52848;SDS011;38714;53.180;5.812;2023-04-24T10:03:20;4.07;;;1.05;;
52848;SDS011;38714;53.180;5.812;2023-04-24T10:05:48;1.83;;;1.15;;
52848;SDS011;38714;53.180;5.812;2023-04-24T10:08:16;5.97;;;0.70;;
52848;SDS011;38714;53.180;5.812;2023-04-24T10:10:42;2.72;;;1.10;;
52848;SDS011;38714;53.180;5.812;2023-04-24T10:13:09;3.47;;;1.10;;
52848;SDS011;38714;53.180;5.812;2023-04-24T10:15:36;4.85;;;1.42;;
52848;SDS011;38714;53.180;5.812;2023-04-24T10:18:04;4.22;;;0.60;;
52848;SDS011;38714;53.180;5.812;2023-04-24T10:20:31;3.60;;;1.02;;
52848;SDS011;38714;53.180;5.812;2023-04-24T10:22:58;2.08;;;0.98;;
52848;SDS011;38714;53.180;5.812;2023-04-24T10:25:28;0.95;;;0.75;;
52848;SDS011;38714;53.180;5.812;2023-04-24T10:27:55;4.88;;;0.90;;
52848;SDS011;38714;53.180;5.812;2023-04-24T10:30:24;4.13;;;0.98;;
52848;SDS011;38714;53.180;5.812;2023-04-24T10:32:51;2.40;;;1.38;;
52848;SDS011;38714;53.180;5.812;2023-04-24T10:35:17;1.75;;;0.85;;
52848;SDS011;38714;53.180;5.812;2023-04-24T10:40:36;1.15;;;0.90;;
52848;SDS011;38714;53.180;5.812;2023-04-24T10:43:03;7.68;;;1.58;;
52848;SDS011;38714;53.180;5.812;2023-04-24T10:45:36;4.07;;;1.02;;
52848;SDS011;38714;53.180;5.812;2023-04-24T10:48:03;0.70;;;0.50;;
52848;SDS011;38714;53.180;5.812;2023-04-24T10:51:10;0.85;;;0.60;;
52848;SDS011;38714;53.180;5.812;2023-04-24T10:53:28;2.60;;;0.65;;
52848;SDS011;38714;53.180;5.812;2023-04-24T10:58:37;0.68;;;0.50;;
52848;SDS011;38714;53.180;5.812;2023-04-24T11:01:11;1.92;;;0.88;;
52848;SDS011;38714;53.180;5.812;2023-04-24T11:03:56;1.55;;;0.60;;
52848;SDS011;38714;53.180;5.812;2023-04-24T11:06:31;1.77;;;0.52;;
52848;SDS011;38714;53.180;5.812;2023-04-24T11:09:04;3.00;;;1.20;;
52848;SDS011;38714;53.180;5.812;2023-04-24T11:11:31;4.13;;;0.52;;
52848;SDS011;38714;53.180;5.812;2023-04-24T11:16:28;4.25;;;0.85;;
52848;SDS011;38714;53.180;5.812;2023-04-24T11:19:00;0.47;;;0.47;;
52848;SDS011;38714;53.180;5.812;2023-04-24T11:21:54;0.95;;;0.88;;
52848;SDS011;38714;53.180;5.812;2023-04-24T11:27:13;3.92;;;0.90;;
52848;SDS011;38714;53.180;5.812;2023-04-24T11:34:50;1.42;;;1.08;;
52848;SDS011;38714;53.180;5.812;2023-04-24T11:37:17;3.78;;;0.57;;
52848;SDS011;38714;53.180;5.812;2023-04-24T11:39:42;1.77;;;0.73;;
52848;SDS011;38714;53.180;5.812;2023-04-24T11:42:08;2.10;;;0.57;;
52848;SDS011;38714;53.180;5.812;2023-04-24T11:44:34;2.78;;;1.17;;
52848;SDS011;38714;53.180;5.812;2023-04-24T11:47:06;1.75;;;0.63;;
52848;SDS011;38714;53.180;5.812;2023-04-24T11:49:33;3.35;;;1.17;;
52848;SDS011;38714;53.180;5.812;2023-04-24T11:52:01;1.65;;;1.05;;
52848;SDS011;38714;53.180;5.812;2023-04-24T11:54:27;0.85;;;0.47;;
52848;SDS011;38714;53.180;5.812;2023-04-24T11:56:53;0.98;;;0.90;;
52848;SDS011;38714;53.180;5.812;2023-04-24T11:59:21;0.40;;;0.10;;
52848;SDS011;38714;53.180;5.812;2023-04-24T12:01:46;1.30;;;0.60;;
52848;SDS011;38714;53.180;5.812;2023-04-24T12:04:15;0.55;;;0.30;;
52848;SDS011;38714;53.180;5.812;2023-04-24T12:09:46;0.10;;;0.05;;
52848;SDS011;38714;53.180;5.812;2023-04-24T12:12:15;0.77;;;0.45;;
52848;SDS011;38714;53.180;5.812;2023-04-24T12:14:48;0.20;;;0.20;;
52848;SDS011;38714;53.180;5.812;2023-04-24T12:17:15;4.65;;;0.82;;
52848;SDS011;38714;53.180;5.812;2023-04-24T12:19:48;0.20;;;0.13;;
52848;SDS011;38714;53.180;5.812;2023-04-24T12:22:14;1.77;;;0.30;;
52848;SDS011;38714;53.180;5.812;2023-04-24T12:24:55;0.50;;;0.30;;
52848;SDS011;38714;53.180;5.812;2023-04-24T12:27:22;0.20;;;0.20;;
52848;SDS011;38714;53.180;5.812;2023-04-24T12:29:51;1.85;;;0.30;;
52848;SDS011;38714;53.180;5.812;2023-04-24T12:32:18;0.60;;;0.43;;
52848;SDS011;38714;53.180;5.812;2023-04-24T12:34:44;2.30;;;0.85;;
52848;SDS011;38714;53.180;5.812;2023-04-24T12:37:10;2.95;;;1.05;;
52848;SDS011;38714;53.180;5.812;2023-04-24T12:39:36;1.13;;;0.93;;
52848;SDS011;38714;53.180;5.812;2023-04-24T12:42:02;3.17;;;0.45;;
52848;SDS011;38714;53.180;5.812;2023-04-24T12:44:31;0.20;;;0.20;;
52848;SDS011;38714;53.180;5.812;2023-04-24T12:47:02;0.22;;;0.22;;
52848;SDS011;38714;53.180;5.812;2023-04-24T12:49:31;1.58;;;0.25;;
52848;SDS011;38714;53.180;5.812;2023-04-24T12:51:57;0.20;;;0.20;;
52848;SDS011;38714;53.180;5.812;2023-04-24T12:54:23;1.65;;;0.35;;
52848;SDS011;38714;53.180;5.812;2023-04-24T12:56:49;0.80;;;0.80;;
52848;SDS011;38714;53.180;5.812;2023-04-24T12:59:15;1.60;;;0.40;;
52848;SDS011;38714;53.180;5.812;2023-04-24T13:01:40;0.45;;;0.40;;
52848;SDS011;38714;53.180;5.812;2023-04-24T13:04:06;1.67;;;0.57;;
52848;SDS011;38714;53.180;5.812;2023-04-24T13:06:32;0.50;;;0.50;;
52848;SDS011;38714;53.180;5.812;2023-04-24T13:08:57;2.03;;;1.00;;
52848;SDS011;38714;53.180;5.812;2023-04-24T13:11:23;3.53;;;1.27;;
52848;SDS011;38714;53.180;5.812;2023-04-24T13:13:49;2.58;;;0.95;;
52848;SDS011;38714;53.180;5.812;2023-04-24T13:16:15;0.90;;;0.90;;
52848;SDS011;38714;53.180;5.812;2023-04-24T13:18:40;2.33;;;1.00;;
52848;SDS011;38714;53.180;5.812;2023-04-24T13:21:06;10.05;;;0.98;;
52848;SDS011;38714;53.180;5.812;2023-04-24T13:23:32;3.53;;;1.05;;
52848;SDS011;38714;53.180;5.812;2023-04-24T13:25:57;1.83;;;0.80;;
52848;SDS011;38714;53.180;5.812;2023-04-24T13:28:26;1.77;;;0.55;;
52848;SDS011;38714;53.180;5.812;2023-04-24T13:30:52;1.95;;;0.70;;
52848;SDS011;38714;53.180;5.812;2023-04-24T13:33:18;0.98;;;0.93;;
52848;SDS011;38714;53.180;5.812;2023-04-24T13:35:44;2.95;;;0.88;;
52848;SDS011;38714;53.180;5.812;2023-04-24T13:38:09;0.55;;;0.47;;
52848;SDS011;38714;53.180;5.812;2023-04-24T13:40:35;5.72;;;1.10;;
52848;SDS011;38714;53.180;5.812;2023-04-24T13:43:01;0.63;;;0.40;;
52848;SDS011;38714;53.180;5.812;2023-04-24T13:45:27;0.85;;;0.47;;
52848;SDS011;38714;53.180;5.812;2023-04-24T13:47:53;2.20;;;0.82;;
52848;SDS011;38714;53.180;5.812;2023-04-24T13:50:19;2.50;;;1.10;;
52848;SDS011;38714;53.180;5.812;2023-04-24T13:52:45;1.23;;;0.60;;
52848;SDS011;38714;53.180;5.812;2023-04-24T13:55:11;1.50;;;1.40;;
52848;SDS011;38714;53.180;5.812;2023-04-24T13:57:36;4.55;;;1.10;;
52848;SDS011;38714;53.180;5.812;2023-04-24T14:00:02;4.43;;;1.67;;
52848;SDS011;38714;53.180;5.812;2023-04-24T14:02:29;4.13;;;1.10;;
52848;SDS011;38714;53.180;5.812;2023-04-24T14:04:55;2.55;;;0.90;;
52848;SDS011;38714;53.180;5.812;2023-04-24T14:07:20;1.75;;;0.90;;
52848;SDS011;38714;53.180;5.812;2023-04-24T14:09:46;1.10;;;0.60;;
52848;SDS011;38714;53.180;5.812;2023-04-24T14:12:12;1.77;;;0.85;;
52848;SDS011;38714;53.180;5.812;2023-04-24T14:14:38;1.35;;;0.88;;
52848;SDS011;38714;53.180;5.812;2023-04-24T14:17:04;2.78;;;1.00;;
52848;SDS011;38714;53.180;5.812;2023-04-24T14:19:30;2.08;;;1.05;;
52848;SDS011;38714;53.180;5.812;2023-04-24T14:21:56;10.35;;;2.60;;
52848;SDS011;38714;53.180;5.812;2023-04-24T14:24:23;0.82;;;0.77;;
52848;SDS011;38714;53.180;5.812;2023-04-24T14:26:49;3.92;;;1.13;;
52848;SDS011;38714;53.180;5.812;2023-04-24T14:29:14;2.42;;;1.55;;
52848;SDS011;38714;53.180;5.812;2023-04-24T14:31:41;3.08;;;1.25;;
52848;SDS011;38714;53.180;5.812;2023-04-24T14:34:07;4.22;;;1.40;;
52848;SDS011;38714;53.180;5.812;2023-04-24T14:36:33;4.95;;;0.93;;
52848;SDS011;38714;53.180;5.812;2023-04-24T14:38:59;1.58;;;0.82;;
52848;SDS011;38714;53.180;5.812;2023-04-24T14:41:24;1.75;;;1.20;;
52848;SDS011;38714;53.180;5.812;2023-04-24T14:43:50;4.07;;;1.80;;
52848;SDS011;38714;53.180;5.812;2023-04-24T14:46:15;4.63;;;1.25;;
52848;SDS011;38714;53.180;5.812;2023-04-24T14:48:41;1.98;;;1.20;;
52848;SDS011;38714;53.180;5.812;2023-04-24T14:51:06;1.65;;;0.85;;
52848;SDS011;38714;53.180;5.812;2023-04-24T14:53:32;3.15;;;1.45;;
52848;SDS011;38714;53.180;5.812;2023-04-24T14:55:57;2.17;;;1.02;;
52848;SDS011;38714;53.180;5.812;2023-04-24T14:58:23;0.70;;;0.70;;
52848;SDS011;38714;53.180;5.812;2023-04-24T15:00:49;3.85;;;1.27;;
52848;SDS011;38714;53.180;5.812;2023-04-24T15:03:16;2.47;;;1.25;;
52848;SDS011;38714;53.180;5.812;2023-04-24T15:05:43;3.03;;;1.48;;